createdAt,value
2019-01-05T00:01:12.594Z,101789.22
2019-01-05T00:04:13.343Z,101786.06
2019-01-05T00:07:09.587Z,101775.23
2019-01-05T00:10:08.728Z,101768.33
2019-01-05T00:12:57.910Z,101767.78
2019-01-05T00:15:44.205Z,101758.38
2019-01-05T00:18:33.244Z,101746.36
2019-01-05T00:21:40.718Z,101746.91
2019-01-05T00:24:28.405Z,101737.46
2019-01-05T00:27:22.090Z,101744.15
2019-01-05T00:30:10.433Z,101734.33
2019-01-05T00:33:01.552Z,101728.72
2019-01-05T00:36:26.816Z,101729.75
2019-01-05T00:39:29.204Z,101723.61
2019-01-05T00:42:22.687Z,101714.08
2019-01-05T00:45:31.597Z,101712.09
2019-01-05T00:48:30.969Z,101715.24
2019-01-05T00:51:22.327Z,101715.48
2019-01-05T00:54:25.691Z,101715.22
2019-01-05T00:57:15.602Z,101714.45
2019-01-05T01:00:15.127Z,101720.41
2019-01-05T01:03:14.567Z,101715.34
2019-01-05T01:06:14.091Z,101710.23
2019-01-05T01:09:06.932Z,101690.63
2019-01-05T01:11:55.982Z,101702.52
2019-01-05T01:15:01.649Z,101692.98
2019-01-05T01:18:04.999Z,101683.41
2019-01-05T01:21:10.507Z,101680.95
2019-01-05T01:24:13.332Z,101674.53
2019-01-05T01:27:02.641Z,101674.53
2019-01-05T01:30:07.818Z,101666.28
2019-01-05T01:32:56.845Z,101664.70
2019-01-05T01:35:56.361Z,101658.70
2019-01-05T01:38:42.081Z,101666.78
2019-01-05T01:42:02.775Z,101659.86
2019-01-05T01:44:53.116Z,101654.75
2019-01-05T01:47:43.639Z,101649.52
2019-01-05T01:50:33.828Z,101634.76
2019-01-05T01:53:30.877Z,101639.18
2019-01-05T01:56:34.624Z,101629.65
2019-01-05T01:59:28.111Z,101615.00
2019-01-05T02:02:36.064Z,101609.50
2019-01-05T02:08:29.961Z,101603.59
2019-01-05T02:11:15.713Z,101587.62
2019-01-05T02:14:22.813Z,101596.39
2019-01-05T02:17:49.277Z,101584.36
2019-01-05T02:20:52.899Z,101584.86
2019-01-05T02:24:14.067Z,101572.43
2019-01-05T02:27:56.484Z,101567.42
2019-01-05T02:31:11.042Z,101579.30
2019-01-05T02:34:48.043Z,101561.15
2019-01-05T02:38:40.247Z,101570.14
2019-01-05T02:42:36.848Z,101571.17
2019-01-05T02:46:10.277Z,101558.87
2019-01-05T02:49:53.450Z,101545.14
2019-01-05T02:53:47.226Z,101553.09
2019-01-05T02:57:18.280Z,101535.28
2019-01-05T03:00:38.079Z,101539.74
2019-01-05T03:04:26.104Z,101537.12
2019-01-05T03:08:27.439Z,101532.39
2019-01-05T03:11:52.493Z,101530.81
2019-01-05T03:15:23.028Z,101520.35
2019-01-05T03:18:59.274Z,101527.00
2019-01-05T03:22:40.378Z,101515.23
2019-01-05T03:26:11.375Z,101501.48
2019-01-05T03:29:42.873Z,101507.22
2019-01-05T03:33:14.967Z,101502.52
2019-01-05T03:37:03.543Z,101512.98
2019-01-05T03:40:42.798Z,101504.22
2019-01-05T03:44:28.356Z,101482.38
2019-01-05T03:48:21.172Z,101491.53
2019-01-05T03:51:54.379Z,101473.92
2019-01-05T03:55:29.718Z,101474.84
2019-01-05T03:58:56.316Z,101462.05
2019-01-05T04:02:21.218Z,101465.97
2019-01-05T04:06:04.472Z,101474.59
2019-01-05T04:09:44.607Z,101462.44
2019-01-05T04:13:14.970Z,101464.23
2019-01-05T04:16:45.032Z,101458.62
2019-01-05T04:20:30.637Z,101451.30
2019-01-05T04:24:19.206Z,101442.16
2019-01-05T04:28:01.536Z,101442.66
2019-01-05T04:31:50.598Z,101447.21
2019-01-05T04:35:16.688Z,101456.37
2019-01-05T04:38:31.998Z,101456.48
2019-01-05T04:42:03.267Z,101448.23
2019-01-05T04:45:17.853Z,101447.81
2019-01-05T04:48:56.714Z,101445.20
2019-01-05T04:52:26.667Z,101438.38
2019-01-05T04:55:43.050Z,101435.09
2019-01-05T04:59:25.989Z,101427.25
2019-01-05T05:02:47.615Z,101428.28
2019-01-05T05:06:26.309Z,101426.97
2019-01-05T05:10:07.237Z,101428.88
2019-01-05T05:13:38.297Z,101443.80
2019-01-05T05:17:08.778Z,101444.30
2019-01-05T05:20:32.906Z,101446.63
2019-01-05T05:23:44.183Z,101444.01
2019-01-05T05:27:05.560Z,101451.97
2019-01-05T05:30:47.997Z,101453.27
2019-01-05T05:34:26.516Z,101457.30
2019-01-05T05:37:58.321Z,101441.75
2019-01-05T05:41:41.693Z,101458.97
2019-01-05T05:45:13.568Z,101453.34
2019-01-05T05:48:55.514Z,101467.73
2019-01-05T05:52:21.576Z,101466.00
2019-01-05T05:55:37.057Z,101460.59
2019-01-05T05:59:29.477Z,101468.06
2019-01-05T06:03:05.512Z,101461.13
2019-01-05T06:06:30.513Z,101447.13
2019-01-05T06:10:08.343Z,101447.23
2019-01-05T06:13:49.631Z,101452.61
2019-01-05T06:17:42.840Z,101468.41
2019-01-05T06:21:35.349Z,101480.19
2019-01-05T06:25:11.137Z,101481.60
2019-01-05T06:28:27.793Z,101482.23
2019-01-05T06:31:51.489Z,101480.22
2019-01-05T06:35:26.405Z,101472.77
2019-01-05T06:39:10.301Z,101459.82
2019-01-05T06:42:52.690Z,101465.16
2019-01-05T06:46:28.339Z,101462.02
2019-01-05T06:50:17.500Z,101468.56
2019-01-05T06:53:39.303Z,101474.21
2019-01-05T06:57:01.216Z,101482.56
2019-01-05T07:00:43.934Z,101497.98
2019-01-05T07:04:16.072Z,101502.72
2019-01-05T07:07:54.080Z,101510.25
2019-01-05T07:11:39.908Z,101514.99
2019-01-05T07:15:18.436Z,101526.52
2019-01-05T07:18:47.799Z,101524.26
2019-01-05T07:22:34.187Z,101518.67
2019-01-05T07:26:32.569Z,101517.72
2019-01-05T07:30:07.782Z,101524.53
2019-01-05T07:33:35.889Z,101532.11
2019-01-05T07:36:49.248Z,101532.11
2019-01-05T07:40:35.639Z,101532.67
2019-01-05T07:44:07.132Z,101527.02
2019-01-05T07:47:22.691Z,101533.67
2019-01-05T07:50:50.584Z,101521.29
2019-01-05T07:54:15.579Z,101511.56
2019-01-05T07:58:04.692Z,101511.98
2019-01-05T08:01:27.242Z,101519.84
2019-01-05T08:05:07.193Z,101505.94
2019-01-05T08:08:38.571Z,101507.63
2019-01-05T08:11:54.012Z,101513.30
2019-01-05T08:15:20.677Z,101525.22
2019-01-05T08:19:01.024Z,101543.25
2019-01-05T08:22:27.865Z,101536.70
2019-01-05T08:26:12.628Z,101550.82
2019-01-05T08:29:47.681Z,101557.09
2019-01-05T08:33:21.636Z,101560.59
2019-01-05T08:36:54.775Z,101567.77
2019-01-05T08:40:29.768Z,101573.50
2019-01-05T08:44:28.950Z,101569.19
2019-01-05T08:48:02.551Z,101585.92
2019-01-05T08:51:40.376Z,101590.98
2019-01-05T08:55:16.829Z,101584.83
2019-01-05T08:58:57.666Z,101588.08
2019-01-05T09:02:27.686Z,101585.86
2019-01-05T09:05:52.931Z,101584.38
2019-01-05T09:09:09.546Z,101588.02
2019-01-05T09:12:37.445Z,101600.44
2019-01-05T09:16:06.310Z,101606.42
2019-01-05T09:19:46.460Z,101614.38
2019-01-05T09:23:23.832Z,101611.88
2019-01-05T09:27:25.984Z,101601.61
2019-01-05T09:31:09.516Z,101615.23
2019-01-05T09:34:42.609Z,101625.54
2019-01-05T09:38:17.414Z,101624.83
2019-01-05T09:41:58.535Z,101637.65
2019-01-05T09:45:23.711Z,101633.05
2019-01-05T09:49:09.257Z,101638.39
2019-01-05T09:52:41.647Z,101635.49
2019-01-05T09:56:13.283Z,101642.97
2019-01-05T09:59:53.347Z,101639.42
2019-01-05T10:03:34.755Z,101629.05
2019-01-05T10:07:26.434Z,101624.52
2019-01-05T10:11:15.696Z,101622.29
2019-01-05T10:14:49.131Z,101626.33
2019-01-05T10:17:59.014Z,101633.51
2019-01-05T10:21:15.608Z,101635.70
2019-01-05T10:24:56.806Z,101642.40
2019-01-05T10:28:31.370Z,101647.21
2019-01-05T10:32:09.875Z,101653.38
2019-01-05T10:35:37.854Z,101643.81
2019-01-05T10:39:03.505Z,101640.63
2019-01-05T10:42:32.603Z,101635.49
2019-01-05T10:46:06.001Z,101646.19
2019-01-05T10:49:36.952Z,101630.08
2019-01-05T10:53:32.873Z,101632.31
2019-01-05T10:56:54.159Z,101627.06
2019-01-05T11:00:44.001Z,101620.91
2019-01-05T11:04:11.200Z,101616.69
2019-01-05T11:08:06.179Z,101621.93
2019-01-05T11:12:02.025Z,101623.84
2019-01-05T11:15:27.248Z,101627.39
2019-01-05T11:18:41.758Z,101632.73
2019-01-05T11:21:58.411Z,101628.80
2019-01-05T11:25:20.440Z,101628.02
2019-01-05T11:29:00.689Z,101629.44
2019-01-05T11:32:09.854Z,101640.52
2019-01-05T11:35:24.345Z,101626.42
2019-01-05T11:39:16.539Z,101627.73
2019-01-05T11:42:43.063Z,101621.78
2019-01-05T11:46:12.249Z,101627.27
2019-01-05T11:49:38.365Z,101618.98
2019-01-05T11:53:10.108Z,101621.71
2019-01-05T11:56:30.858Z,101623.55
2019-01-05T11:59:49.607Z,101619.62
2019-01-05T12:03:32.793Z,101628.50
2019-01-05T12:06:57.972Z,101623.76
2019-01-05T12:10:36.363Z,101631.44
2019-01-05T12:14:01.946Z,101635.27
2019-01-05T12:17:26.861Z,101639.73
2019-01-05T12:20:59.246Z,101638.80
2019-01-05T12:24:39.405Z,101644.16
2019-01-05T12:28:05.346Z,101643.13
2019-01-05T12:31:37.076Z,101640.22
2019-01-05T12:35:25.002Z,101637.99
2019-01-05T12:38:55.218Z,101642.17
2019-01-05T12:42:33.216Z,101640.33
2019-01-05T12:45:54.366Z,101644.79
2019-01-05T12:49:12.690Z,101644.89
2019-01-05T12:52:40.196Z,101646.31
2019-01-05T12:56:30.664Z,101658.50
2019-01-05T13:00:06.013Z,101662.53
2019-01-05T13:03:39.650Z,101661.47
2019-01-05T13:06:59.126Z,101670.25
2019-01-05T13:10:40.835Z,101674.68
2019-01-05T13:14:17.588Z,101677.51
2019-01-05T13:18:00.445Z,101676.63
2019-01-05T13:21:35.436Z,101677.12
2019-01-05T13:25:33.170Z,101684.31
2019-01-05T13:28:59.333Z,101692.56
2019-01-05T13:32:24.422Z,101688.63
2019-01-05T13:35:29.775Z,101690.23
2019-01-05T13:39:01.733Z,101701.11
2019-01-05T13:42:36.080Z,101707.27
2019-01-05T13:46:38.244Z,101717.27
2019-01-05T13:50:09.612Z,101724.70
2019-01-05T13:53:23.424Z,101731.25
2019-01-05T13:56:22.227Z,101724.20
2019-01-05T13:59:12.055Z,101734.16
2019-01-05T14:02:21.411Z,101734.69
2019-01-05T14:05:14.367Z,101741.25
2019-01-05T14:08:23.112Z,101734.59
2019-01-05T14:11:12.161Z,101740.72
2019-01-05T14:14:01.126Z,101741.42
2019-01-05T14:17:03.428Z,101746.95
2019-01-05T14:19:53.598Z,101754.42
2019-01-05T14:22:42.364Z,101762.57
2019-01-05T14:25:31.544Z,101764.17
2019-01-05T14:28:31.845Z,101765.76
2019-01-05T14:31:21.011Z,101766.04
2019-01-05T14:34:11.460Z,101763.70
2019-01-05T14:37:04.418Z,101766.60
2019-01-05T14:39:52.048Z,101762.06
2019-01-05T14:42:54.876Z,101763.23
2019-01-05T14:45:46.447Z,101764.55
2019-01-05T14:48:35.846Z,101768.09
2019-01-05T14:51:26.589Z,101768.47
2019-01-05T14:54:17.204Z,101766.77
2019-01-05T14:57:06.473Z,101765.85
2019-01-05T15:00:02.745Z,101771.34
2019-01-05T15:02:54.641Z,101770.81
2019-01-05T15:05:45.309Z,101766.67
2019-01-05T15:08:35.141Z,101770.59
2019-01-05T15:11:24.261Z,101767.48
2019-01-05T15:14:12.594Z,101768.53
2019-01-05T15:17:02.394Z,101778.63
2019-01-05T15:19:53.338Z,101773.78
2019-01-05T15:22:42.290Z,101776.41
2019-01-05T15:25:35.887Z,101781.25
2019-01-05T15:28:32.563Z,101776.41
2019-01-05T15:31:32.318Z,101780.33
2019-01-05T15:34:42.030Z,101782.95
2019-01-05T15:37:31.743Z,101784.55
2019-01-05T15:40:26.667Z,101785.25
2019-01-05T15:43:16.373Z,101777.24
2019-01-05T15:46:09.571Z,101779.75
2019-01-05T15:49:14.867Z,101777.24
2019-01-05T15:52:14.070Z,101780.28
2019-01-05T15:55:04.326Z,101782.37
2019-01-05T15:57:53.619Z,101787.61
2019-01-05T16:00:42.350Z,101800.83
2019-01-05T16:03:32.490Z,101799.02
2019-01-05T16:06:22.678Z,101804.25
2019-01-05T16:09:11.403Z,101802.56
2019-01-05T16:12:00.550Z,101799.52
2019-01-05T16:14:49.545Z,101805.28
2019-01-05T16:17:48.962Z,101799.52
2019-01-05T16:20:37.676Z,101799.41
2019-01-05T16:23:46.581Z,101799.83
2019-01-05T16:26:36.455Z,101794.16
2019-01-05T16:29:17.743Z,101791.97
2019-01-05T16:32:06.533Z,101791.05
2019-01-05T16:35:00.250Z,101797.20
2019-01-05T16:37:48.905Z,101801.91
2019-01-05T16:40:42.235Z,101806.37
2019-01-05T16:43:31.860Z,101806.77
2019-01-05T16:46:21.093Z,101809.28
2019-01-05T16:49:20.004Z,101821.56
2019-01-05T16:52:09.022Z,101828.12
2019-01-05T16:54:58.108Z,101830.24
2019-01-05T16:57:47.226Z,101834.95
2019-01-05T17:00:36.026Z,101831.30
2019-01-05T17:03:31.992Z,101833.41
2019-01-05T17:06:22.237Z,101829.77
2019-01-05T17:09:21.599Z,101828.45
2019-01-05T17:12:14.626Z,101839.43
2019-01-05T17:15:03.672Z,101836.81
2019-01-05T17:17:55.223Z,101840.23
2019-01-05T17:20:51.323Z,101841.55
2019-01-05T17:23:40.471Z,101844.67
2019-01-05T17:26:29.711Z,101842.05
2019-01-05T17:29:33.210Z,101846.41
2019-01-05T17:32:38.581Z,101842.86
2019-01-05T17:35:27.451Z,101844.17
2019-01-05T17:38:20.382Z,101843.52
2019-01-05T17:41:09.175Z,101850.61
2019-01-05T17:43:58.291Z,101857.55
2019-01-05T17:46:39.885Z,101860.55
2019-01-05T17:49:30.041Z,101858.36
2019-01-05T17:52:19.650Z,101855.20
2019-01-05T17:55:19.015Z,101861.25
2019-01-05T17:58:21.848Z,101865.96
2019-01-05T18:01:11.310Z,101862.84
2019-01-05T18:04:04.925Z,101867.27
2019-01-05T18:06:51.344Z,101861.25
2019-01-05T18:09:41.036Z,101857.71
2019-01-05T18:12:34.863Z,101865.84
2019-01-05T18:15:25.595Z,101864.15
2019-01-05T18:18:15.322Z,101854.98
2019-01-05T18:21:08.620Z,101861.14
2019-01-05T18:24:14.748Z,101861.14
2019-01-05T18:27:12.125Z,101862.03
2019-01-05T18:30:08.770Z,101861.41
2019-01-05T18:33:06.419Z,101867.81
2019-01-05T18:35:55.833Z,101874.67
2019-01-05T18:38:53.169Z,101881.61
2019-01-05T18:41:54.997Z,101880.41
2019-01-05T18:44:45.358Z,101882.65
2019-01-05T18:47:42.177Z,101885.38
2019-01-05T18:50:31.933Z,101881.06
2019-01-05T18:53:31.597Z,101890.34
2019-01-05T18:56:22.397Z,101896.51
2019-01-05T18:59:11.626Z,101896.62
2019-01-05T19:02:14.575Z,101896.62
2019-01-05T19:05:03.903Z,101900.55
2019-01-05T19:08:01.535Z,101902.64
2019-01-05T19:10:59.442Z,101898.32
2019-01-05T19:13:57.602Z,101904.31
2019-01-05T19:16:50.920Z,101904.70
2019-01-05T19:19:53.273Z,101906.12
2019-01-05T19:22:46.515Z,101905.74
2019-01-05T19:25:32.445Z,101911.48
2019-01-05T19:28:28.593Z,101908.73
2019-01-05T19:31:18.170Z,101906.73
2019-01-05T19:34:20.275Z,101908.69
2019-01-05T19:37:13.696Z,101910.11
2019-01-05T19:40:08.928Z,101912.73
2019-01-05T19:43:03.305Z,101922.17
2019-01-05T19:45:52.965Z,101924.30
2019-01-05T19:48:42.323Z,101941.61
2019-01-05T19:51:43.686Z,101935.83
2019-01-05T19:54:50.975Z,101940.95
2019-01-05T19:57:53.598Z,101937.41
2019-01-05T20:00:42.455Z,101952.52
2019-01-05T20:03:46.230Z,101949.78
2019-01-05T20:06:35.152Z,101955.80
2019-01-05T20:09:35.214Z,101961.20
2019-01-05T20:12:33.082Z,101956.61
2019-01-05T20:15:28.588Z,101962.66
2019-01-05T20:18:37.246Z,101968.72
2019-01-05T20:21:30.687Z,101968.75
2019-01-05T20:24:19.606Z,101972.45
2019-01-05T20:27:18.349Z,101967.60
2019-01-05T20:30:14.665Z,101972.45
2019-01-05T20:33:07.626Z,101977.04
2019-01-05T20:36:06.834Z,101983.97
2019-01-05T20:38:56.975Z,101989.33
2019-01-05T20:41:46.111Z,101988.02
2019-01-05T20:44:35.224Z,101998.11
2019-01-05T20:47:24.314Z,101992.48
2019-01-05T20:50:20.616Z,101985.55
2019-01-05T20:53:10.767Z,101992.22
2019-01-05T20:56:14.205Z,101991.29
2019-01-05T20:59:03.529Z,101988.28
2019-01-05T21:02:12.180Z,101988.17
2019-01-05T21:04:58.359Z,101993.67
2019-01-05T21:07:57.867Z,101997.06
2019-01-05T21:10:57.886Z,101991.59
2019-01-05T21:13:51.392Z,101990.56
2019-01-05T21:16:42.028Z,101992.25
2019-01-05T21:19:44.221Z,102000.91
2019-01-05T21:22:45.148Z,101997.76
2019-01-05T21:25:36.371Z,102000.80
2019-01-05T21:28:32.640Z,102007.08
2019-01-05T21:31:25.551Z,102012.58
2019-01-05T21:34:09.196Z,102015.08
2019-01-05T21:37:02.327Z,102028.05
2019-01-05T21:40:01.461Z,102030.94
2019-01-05T21:43:09.691Z,102037.52
2019-01-05T21:46:15.090Z,102040.39
2019-01-05T21:49:14.582Z,102046.44
2019-01-05T21:52:04.761Z,102050.89
2019-01-05T21:54:57.993Z,102048.54
2019-01-05T21:57:48.439Z,102053.92
2019-01-05T22:00:37.538Z,102054.03
2019-01-05T22:03:26.520Z,102046.70
2019-01-05T22:06:19.714Z,102045.27
2019-01-05T22:09:25.755Z,102058.23
2019-01-05T22:12:14.580Z,102054.31
2019-01-05T22:15:03.439Z,102065.31
2019-01-05T22:17:59.179Z,102066.34
2019-01-05T22:20:55.380Z,102058.24
2019-01-05T22:23:44.456Z,102065.59
2019-01-05T22:26:46.766Z,102066.62
2019-01-05T22:29:35.709Z,102066.88
2019-01-05T22:32:25.302Z,102067.68
2019-01-05T22:35:15.006Z,102074.48
2019-01-05T22:38:03.989Z,102066.39
2019-01-05T22:41:06.327Z,102069.77
2019-01-05T22:43:56.434Z,102065.61
2019-01-05T22:46:45.654Z,102065.62
2019-01-05T22:49:47.045Z,102071.11
2019-01-05T22:52:37.212Z,102079.98
2019-01-05T22:55:28.358Z,102082.89
2019-01-05T22:58:34.659Z,102084.70
2019-01-05T23:01:33.815Z,102080.54
2019-01-05T23:04:22.583Z,102084.46
2019-01-05T23:07:24.834Z,102090.20
2019-01-05T23:10:33.392Z,102087.97
2019-01-05T23:13:35.553Z,102089.81
2019-01-05T23:16:24.805Z,102091.00
2019-01-05T23:19:18.078Z,102093.33
2019-01-05T23:22:16.337Z,102095.19
2019-01-05T23:25:01.046Z,102096.21
2019-01-05T23:27:46.259Z,102103.01
2019-01-05T23:30:51.735Z,102097.39
2019-01-05T23:33:47.909Z,102097.02
2019-01-05T23:36:43.952Z,102095.70
2019-01-05T23:39:33.007Z,102091.78
2019-01-05T23:42:32.215Z,102090.86
2019-01-05T23:45:29.403Z,102085.88
2019-01-05T23:48:18.212Z,102087.45
2019-01-05T23:51:07.220Z,102086.94
2019-01-05T23:53:56.129Z,102094.12
2019-01-05T23:56:45.315Z,102089.95
2019-01-05T23:59:33.858Z,102084.97
